createdAt,value
2022-11-25T00:01:17.147Z,51.28
2022-11-25T00:03:45.065Z,52.15
2022-11-25T00:06:14.008Z,55.38
2022-11-25T00:08:42.053Z,55.35
2022-11-25T00:11:10.467Z,55.50
2022-11-25T00:13:38.117Z,53.88
2022-11-25T00:16:07.467Z,55.17
2022-11-25T00:18:34.730Z,53.75
2022-11-25T00:21:12.779Z,54.25
2022-11-25T00:23:40.347Z,56.55
2022-11-25T00:26:15.367Z,56.95
2022-11-25T00:28:46.548Z,58.00
2022-11-25T00:31:16.887Z,59.45
2022-11-25T00:33:45.508Z,59.60
2022-11-25T00:36:23.716Z,59.75
2022-11-25T00:38:59.142Z,60.92
2022-11-25T00:41:47.165Z,56.65
2022-11-25T00:44:34.963Z,58.55
2022-11-25T00:47:10.730Z,55.80
2022-11-25T00:49:39.127Z,55.22
2022-11-25T00:52:06.580Z,56.90
2022-11-25T00:54:34.244Z,55.85
2022-11-25T00:57:01.477Z,54.75
2022-11-25T00:59:30.080Z,55.72
2022-11-25T01:01:59.955Z,55.70
2022-11-25T01:04:27.301Z,55.38
2022-11-25T01:06:56.909Z,55.25
2022-11-25T01:09:24.186Z,55.50
2022-11-25T01:11:51.749Z,55.75
2022-11-25T01:14:22.793Z,50.95
2022-11-25T01:16:51.380Z,56.38
2022-11-25T01:19:18.871Z,54.45
2022-11-25T01:21:46.893Z,53.53
2022-11-25T01:24:15.534Z,53.95
2022-11-25T01:26:44.249Z,53.83
2022-11-25T01:29:19.467Z,55.50
2022-11-25T01:31:47.246Z,55.90
2022-11-25T01:34:23.128Z,57.42
2022-11-25T01:36:50.423Z,58.03
2022-11-25T01:39:32.070Z,55.30
2022-11-25T01:42:01.136Z,55.45
2022-11-25T01:44:29.284Z,52.65
2022-11-25T01:47:11.536Z,56.45
2022-11-25T01:50:10.070Z,53.30
2022-11-25T01:52:40.183Z,57.92
2022-11-25T01:55:13.640Z,58.03
2022-11-25T01:57:47.390Z,58.38
2022-11-25T02:00:14.821Z,64.47
2022-11-25T02:02:45.784Z,65.30
2022-11-25T02:05:17.470Z,66.35
2022-11-25T02:07:47.343Z,60.92
2022-11-25T02:10:28.504Z,64.97
2022-11-25T02:12:55.545Z,66.13
2022-11-25T02:15:22.911Z,67.03
2022-11-25T02:17:50.158Z,60.08
2022-11-25T02:20:19.142Z,70.15
2022-11-25T02:23:04.718Z,67.38
2022-11-25T02:25:35.269Z,67.63
2022-11-25T02:28:10.290Z,70.03
2022-11-25T02:30:38.347Z,71.68
2022-11-25T02:33:05.898Z,65.30
2022-11-25T02:35:38.824Z,60.08
2022-11-25T02:38:31.149Z,62.83
2022-11-25T02:43:28.419Z,70.22
2022-11-25T02:46:02.938Z,71.68
2022-11-25T02:49:00.770Z,62.55
2022-11-25T02:51:21.298Z,71.28
2022-11-25T02:53:48.369Z,69.03
2022-11-25T02:56:17.450Z,66.15
2022-11-25T02:58:44.659Z,63.85
2022-11-25T03:01:12.054Z,60.65
2022-11-25T03:03:39.169Z,71.95
2022-11-25T03:06:07.579Z,75.45
2022-11-25T03:08:34.960Z,73.43
2022-11-25T03:11:06.190Z,70.50
2022-11-25T03:13:34.101Z,69.40
2022-11-25T03:16:01.417Z,72.75
2022-11-25T03:18:28.511Z,68.25
2022-11-25T03:20:56.221Z,64.18
2022-11-25T03:23:25.190Z,63.17
2022-11-25T03:25:54.435Z,66.90
2022-11-25T03:28:22.099Z,61.40
2022-11-25T03:30:49.469Z,60.30
2022-11-25T03:33:16.388Z,61.55
2022-11-25T03:35:44.499Z,63.40
2022-11-25T03:38:11.392Z,62.25
2022-11-25T03:40:38.423Z,74.28
2022-11-25T03:43:05.700Z,68.10
2022-11-25T03:45:33.381Z,70.10
2022-11-25T03:48:03.811Z,71.25
2022-11-25T03:50:30.830Z,77.68
2022-11-25T03:52:58.169Z,77.70
2022-11-25T03:55:25.939Z,69.82
2022-11-25T03:57:54.680Z,70.53
2022-11-25T04:00:22.155Z,73.65
2022-11-25T04:02:59.251Z,70.35
2022-11-25T04:05:26.179Z,72.95
2022-11-25T04:07:57.952Z,70.97
2022-11-25T04:10:26.105Z,70.82
2022-11-25T04:12:54.700Z,73.90
2022-11-25T04:15:32.432Z,68.50
2022-11-25T04:18:00.094Z,74.53
2022-11-25T04:20:27.483Z,75.57
2022-11-25T04:23:02.560Z,76.93
2022-11-25T04:25:29.691Z,68.93
2022-11-25T04:27:58.121Z,64.15
2022-11-25T04:30:31.227Z,81.63
2022-11-25T04:32:58.381Z,74.75
2022-11-25T04:35:25.500Z,77.20
2022-11-25T04:37:55.193Z,67.20
2022-11-25T04:40:24.266Z,76.80
2022-11-25T04:43:06.057Z,71.32
2022-11-25T04:45:59.018Z,65.60
2022-11-25T04:48:27.173Z,68.63
2022-11-25T04:50:55.387Z,65.47
2022-11-25T04:53:22.680Z,63.17
2022-11-25T04:55:49.713Z,67.05
2022-11-25T04:58:39.448Z,64.55
2022-11-25T05:01:07.577Z,58.05
2022-11-25T05:03:34.876Z,52.08
2022-11-25T05:06:09.256Z,66.20
2022-11-25T05:08:37.943Z,62.22
2022-11-25T05:11:05.382Z,65.55
2022-11-25T05:13:33.039Z,71.57
2022-11-25T05:16:00.486Z,69.25
2022-11-25T05:18:28.610Z,68.57
2022-11-25T05:20:55.707Z,58.80
2022-11-25T05:23:22.942Z,67.57
2022-11-25T05:25:50.168Z,61.70
2022-11-25T05:28:27.393Z,58.92
2022-11-25T05:30:55.257Z,66.25
2022-11-25T05:33:22.828Z,65.32
2022-11-25T05:36:01.046Z,57.67
2022-11-25T05:38:35.098Z,54.28
2022-11-25T05:41:04.689Z,61.45
2022-11-25T05:43:32.172Z,51.42
2022-11-25T05:46:00.640Z,50.80
2022-11-25T05:48:27.664Z,50.92
2022-11-25T05:50:54.862Z,51.83
2022-11-25T05:53:23.674Z,52.42
2022-11-25T05:56:00.938Z,51.72
2022-11-25T05:58:55.116Z,55.65
2022-11-25T06:01:26.304Z,47.40
2022-11-25T06:03:54.534Z,46.03
2022-11-25T06:06:22.071Z,45.83
2022-11-25T06:08:49.223Z,44.47
2022-11-25T06:11:17.645Z,45.53
2022-11-25T06:13:45.717Z,45.50
2022-11-25T06:16:15.394Z,46.05
2022-11-25T06:18:44.683Z,47.13
2022-11-25T06:21:12.490Z,50.88
2022-11-25T06:23:39.982Z,46.58
2022-11-25T06:26:08.164Z,47.35
2022-11-25T06:28:36.247Z,44.80
2022-11-25T06:31:11.831Z,43.45
2022-11-25T06:33:47.816Z,43.20
2022-11-25T06:36:19.313Z,44.03
2022-11-25T06:38:48.541Z,46.40
2022-11-25T06:41:15.648Z,44.97
2022-11-25T06:43:42.665Z,46.28
2022-11-25T06:46:11.908Z,48.83
2022-11-25T06:48:39.199Z,46.80
2022-11-25T06:51:08.228Z,48.33
2022-11-25T06:53:35.602Z,44.50
2022-11-25T06:56:11.850Z,42.33
2022-11-25T06:58:39.580Z,41.08
2022-11-25T07:01:09.075Z,41.72
2022-11-25T07:03:36.168Z,51.72
2022-11-25T07:06:03.806Z,57.88
2022-11-25T07:08:34.161Z,46.88
2022-11-25T07:11:16.719Z,45.28
2022-11-25T07:13:44.194Z,43.38
2022-11-25T07:16:11.905Z,42.75
2022-11-25T07:18:39.831Z,41.95
2022-11-25T07:21:12.139Z,45.00
2022-11-25T07:23:39.612Z,43.08
2022-11-25T07:26:17.694Z,43.55
2022-11-25T07:28:45.709Z,46.60
2022-11-25T07:31:28.175Z,44.45
2022-11-25T07:34:13.289Z,45.28
2022-11-25T07:36:41.420Z,44.47
2022-11-25T07:39:11.687Z,44.58
2022-11-25T07:41:38.872Z,44.88
2022-11-25T07:44:06.530Z,43.35
2022-11-25T07:46:47.419Z,44.78
2022-11-25T07:49:20.739Z,45.85
2022-11-25T07:51:56.791Z,47.42
2022-11-25T07:54:24.220Z,47.28
2022-11-25T07:56:51.774Z,53.03
2022-11-25T07:59:21.008Z,48.72
2022-11-25T08:01:52.670Z,45.42
2022-11-25T08:04:20.962Z,39.58
2022-11-25T08:06:50.489Z,41.67
2022-11-25T08:09:19.968Z,43.15
2022-11-25T08:11:47.706Z,47.13
2022-11-25T08:14:15.268Z,46.40
2022-11-25T08:16:42.873Z,42.97
2022-11-25T08:19:14.026Z,42.60
2022-11-25T08:21:41.627Z,41.35
2022-11-25T08:24:13.798Z,42.45
2022-11-25T08:26:40.868Z,43.22
2022-11-25T08:29:08.089Z,44.40
2022-11-25T08:31:37.664Z,46.75
2022-11-25T08:34:06.517Z,43.50
2022-11-25T08:36:36.339Z,48.30
2022-11-25T08:39:22.445Z,47.60
2022-11-25T08:41:53.605Z,47.03
2022-11-25T08:44:20.598Z,50.30
2022-11-25T08:46:47.798Z,53.72
2022-11-25T08:49:17.449Z,60.78
2022-11-25T08:51:44.497Z,52.30
2022-11-25T08:54:11.737Z,41.17
2022-11-25T08:56:38.728Z,37.47
2022-11-25T08:59:05.966Z,38.55
2022-11-25T09:01:33.053Z,40.13
2022-11-25T09:04:00.608Z,38.53
2022-11-25T09:06:28.438Z,41.28
2022-11-25T09:08:57.869Z,41.40
2022-11-25T09:11:26.091Z,41.17
2022-11-25T09:13:53.484Z,40.55
2022-11-25T09:16:21.173Z,40.95
2022-11-25T09:18:54.041Z,39.40
2022-11-25T09:21:25.192Z,42.00
2022-11-25T09:23:54.765Z,40.67
2022-11-25T09:26:36.819Z,41.15
2022-11-25T09:31:30.927Z,43.92
2022-11-25T09:33:58.244Z,43.90
2022-11-25T09:36:25.308Z,42.95
2022-11-25T09:38:52.546Z,41.38
2022-11-25T09:41:49.785Z,44.45
2022-11-25T09:44:53.395Z,44.50
2022-11-25T09:47:29.628Z,43.72
2022-11-25T09:50:09.392Z,41.55
2022-11-25T09:52:59.050Z,40.47
2022-11-25T09:55:26.572Z,39.03
2022-11-25T09:58:10.413Z,38.88
2022-11-25T10:00:41.087Z,37.47
2022-11-25T10:03:29.897Z,37.13
2022-11-25T10:06:24.013Z,36.00
2022-11-25T10:08:53.578Z,42.75
2022-11-25T10:11:45.110Z,42.50
2022-11-25T10:14:45.396Z,43.50
2022-11-25T10:17:40.288Z,41.83
2022-11-25T10:20:31.178Z,42.85
2022-11-25T10:23:05.203Z,40.10
2022-11-25T10:25:38.048Z,42.03
2022-11-25T10:28:17.569Z,48.13
2022-11-25T10:30:52.175Z,47.55
2022-11-25T10:33:25.308Z,44.67
2022-11-25T10:35:59.648Z,41.22
2022-11-25T10:38:34.938Z,42.33
2022-11-25T10:41:03.666Z,40.65
2022-11-25T10:43:32.508Z,40.63
2022-11-25T10:46:06.973Z,39.97
2022-11-25T10:49:06.927Z,38.63
2022-11-25T10:51:50.929Z,44.50
2022-11-25T10:54:39.010Z,49.33
2022-11-25T10:57:18.786Z,48.53
2022-11-25T10:59:56.465Z,49.10
2022-11-25T11:02:31.697Z,58.78
2022-11-25T11:05:00.456Z,102.60
2022-11-25T11:07:30.589Z,71.43
2022-11-25T11:10:18.077Z,65.13
2022-11-25T11:13:11.688Z,66.93
2022-11-25T11:15:41.893Z,46.95
2022-11-25T11:18:24.845Z,52.17
2022-11-25T11:21:22.373Z,75.38
2022-11-25T11:23:51.228Z,64.47
2022-11-25T11:26:27.807Z,44.78
2022-11-25T11:29:17.176Z,40.72
2022-11-25T11:32:06.488Z,39.25
2022-11-25T11:34:55.291Z,38.13
2022-11-25T11:37:42.141Z,34.92
2022-11-25T11:40:15.263Z,34.42
2022-11-25T11:43:03.939Z,34.75
2022-11-25T11:45:52.718Z,37.97
2022-11-25T11:48:37.899Z,42.47
2022-11-25T11:51:17.819Z,44.40
2022-11-25T11:54:10.787Z,38.03
2022-11-25T11:56:39.147Z,34.13
2022-11-25T11:59:30.701Z,33.40
2022-11-25T12:02:22.221Z,32.90
2022-11-25T12:05:00.815Z,39.55
2022-11-25T12:07:38.406Z,38.97
2022-11-25T12:10:17.529Z,35.88
2022-11-25T12:12:52.417Z,33.45
2022-11-25T12:15:46.588Z,33.90
2022-11-25T12:18:33.807Z,33.83
2022-11-25T12:21:05.474Z,33.03
2022-11-25T12:23:45.727Z,35.55
2022-11-25T12:26:18.217Z,35.63
2022-11-25T12:29:05.958Z,35.47
2022-11-25T12:31:52.503Z,36.72
2022-11-25T12:34:41.108Z,35.78
2022-11-25T12:37:15.410Z,36.53
2022-11-25T12:40:04.362Z,40.95
2022-11-25T12:42:33.318Z,59.40
2022-11-25T12:45:05.009Z,65.35
2022-11-25T12:47:32.162Z,50.85
2022-11-25T12:49:59.569Z,42.67
2022-11-25T12:52:37.553Z,50.55
2022-11-25T12:55:24.471Z,69.35
2022-11-25T12:58:29.028Z,52.95
2022-11-25T13:01:14.461Z,46.47
2022-11-25T13:04:00.888Z,47.95
2022-11-25T13:06:59.458Z,77.05
2022-11-25T13:10:05.375Z,35.95
2022-11-25T13:12:44.747Z,36.05
2022-11-25T13:15:27.966Z,36.40
2022-11-25T13:17:59.625Z,35.53
2022-11-25T13:20:29.723Z,37.20
2022-11-25T13:23:05.554Z,36.53
2022-11-25T13:25:32.993Z,38.10
2022-11-25T13:28:01.927Z,37.58
2022-11-25T13:30:32.051Z,37.72
2022-11-25T13:33:17.555Z,38.28
2022-11-25T13:35:44.608Z,36.83
2022-11-25T13:38:29.876Z,37.83
2022-11-25T13:41:02.552Z,35.63
2022-11-25T13:43:29.733Z,37.10
2022-11-25T13:45:57.061Z,38.38
2022-11-25T13:48:27.448Z,38.92
2022-11-25T13:51:27.087Z,38.33
2022-11-25T13:54:01.999Z,39.67
2022-11-25T13:56:38.101Z,39.85
2022-11-25T13:59:10.978Z,40.85
2022-11-25T14:01:39.570Z,40.42
2022-11-25T14:04:11.570Z,39.67
2022-11-25T14:06:51.256Z,42.65
2022-11-25T14:09:41.559Z,45.05
2022-11-25T14:12:16.138Z,44.95
2022-11-25T14:15:02.869Z,45.13
2022-11-25T14:17:39.051Z,49.45
2022-11-25T14:20:36.888Z,45.40
2022-11-25T14:23:42.062Z,41.28
2022-11-25T14:26:47.716Z,42.75
2022-11-25T14:29:20.337Z,42.92
2022-11-25T14:31:52.186Z,42.55
2022-11-25T14:36:54.363Z,41.55
2022-11-25T14:39:43.650Z,44.60
2022-11-25T14:42:14.315Z,44.40
2022-11-25T14:44:47.769Z,44.10
2022-11-25T14:47:14.794Z,44.40
2022-11-25T14:50:11.934Z,44.38
2022-11-25T14:52:42.625Z,42.42
2022-11-25T14:55:10.612Z,43.30
2022-11-25T14:57:41.875Z,82.57
2022-11-25T15:00:15.579Z,102.50
2022-11-25T15:02:56.388Z,95.50
2022-11-25T15:05:27.439Z,67.00
2022-11-25T15:08:02.970Z,53.20
2022-11-25T15:10:45.280Z,50.83
2022-11-25T15:13:25.537Z,45.10
2022-11-25T15:15:52.761Z,43.65
2022-11-25T15:18:22.513Z,64.35
2022-11-25T15:20:51.572Z,42.38
2022-11-25T15:23:26.314Z,37.67
2022-11-25T15:25:53.917Z,40.85
2022-11-25T15:28:20.844Z,40.30
2022-11-25T15:30:58.742Z,41.90
2022-11-25T15:33:26.862Z,38.88
2022-11-25T15:35:54.218Z,51.53
2022-11-25T15:38:41.695Z,49.33
2022-11-25T15:41:35.159Z,43.25
2022-11-25T15:44:04.291Z,41.00
2022-11-25T15:46:34.141Z,41.65
2022-11-25T15:49:05.785Z,42.08
2022-11-25T15:51:42.429Z,41.28
2022-11-25T15:54:32.173Z,41.67
2022-11-25T15:57:12.238Z,40.40
2022-11-25T15:59:46.398Z,40.67
2022-11-25T16:02:33.617Z,42.35
2022-11-25T16:05:12.852Z,41.00
2022-11-25T16:08:20.311Z,43.08
2022-11-25T16:10:54.677Z,63.20
2022-11-25T16:13:25.764Z,59.40
2022-11-25T16:15:59.485Z,50.67
2022-11-25T16:18:51.507Z,53.00
2022-11-25T16:21:27.730Z,52.40
2022-11-25T16:23:58.448Z,57.28
2022-11-25T16:26:29.300Z,66.00
2022-11-25T16:28:58.586Z,66.13
2022-11-25T16:31:26.475Z,54.05
2022-11-25T16:34:01.634Z,51.63
2022-11-25T16:36:28.754Z,52.92
2022-11-25T16:38:55.769Z,66.47
2022-11-25T16:41:24.703Z,60.65
2022-11-25T16:43:51.908Z,62.42
2022-11-25T16:46:20.535Z,61.92
2022-11-25T16:48:47.855Z,63.47
2022-11-25T16:51:22.121Z,60.15
2022-11-25T16:53:49.127Z,58.97
2022-11-25T16:56:27.916Z,56.25
2022-11-25T16:58:55.134Z,53.40
2022-11-25T17:01:25.117Z,52.42
2022-11-25T17:03:52.418Z,48.35
2022-11-25T17:06:22.638Z,48.15
2022-11-25T17:08:50.909Z,43.22
2022-11-25T17:11:31.359Z,37.80
2022-11-25T17:14:01.712Z,36.58
2022-11-25T17:16:29.636Z,36.25
2022-11-25T17:18:59.200Z,38.70
2022-11-25T17:21:28.958Z,37.70
2022-11-25T17:24:02.845Z,39.08
2022-11-25T17:26:40.693Z,38.53
2022-11-25T17:29:11.834Z,39.67
2022-11-25T17:31:39.192Z,39.88
2022-11-25T17:34:06.283Z,41.00
2022-11-25T17:36:33.136Z,40.35
2022-11-25T17:39:00.263Z,39.88
2022-11-25T17:41:28.807Z,39.92
2022-11-25T17:43:56.118Z,38.92
2022-11-25T17:46:24.913Z,38.30
2022-11-25T17:48:52.174Z,37.78
2022-11-25T17:51:19.049Z,38.20
2022-11-25T17:53:47.762Z,37.83
2022-11-25T17:56:24.913Z,36.75
2022-11-25T17:58:53.161Z,43.72
2022-11-25T18:01:21.501Z,46.70
2022-11-25T18:03:53.418Z,46.35
2022-11-25T18:08:48.213Z,42.33
2022-11-25T18:11:17.975Z,42.85
2022-11-25T18:13:46.472Z,41.47
2022-11-25T18:20:22.285Z,42.58
2022-11-25T18:22:50.605Z,42.80
2022-11-25T18:25:21.232Z,44.63
2022-11-25T18:27:49.742Z,44.70
2022-11-25T18:30:20.010Z,49.40
2022-11-25T18:32:48.942Z,53.25
2022-11-25T18:35:21.480Z,54.65
2022-11-25T18:37:51.188Z,56.55
2022-11-25T18:40:18.842Z,56.15
2022-11-25T18:42:49.532Z,58.55
2022-11-25T18:45:28.149Z,55.22
2022-11-25T18:47:55.483Z,56.85
2022-11-25T18:50:24.840Z,57.95
2022-11-25T18:52:53.849Z,59.38
2022-11-25T18:55:23.451Z,58.03
2022-11-25T18:57:52.393Z,59.65
2022-11-25T19:00:32.124Z,61.28
2022-11-25T19:03:01.360Z,60.45
2022-11-25T19:05:33.686Z,56.30
2022-11-25T19:08:02.445Z,54.45
2022-11-25T19:10:32.446Z,55.65
2022-11-25T19:13:02.165Z,59.65
2022-11-25T19:15:30.068Z,61.15
2022-11-25T19:18:00.146Z,62.63
2022-11-25T19:20:28.756Z,57.95
2022-11-25T19:23:00.538Z,56.33
2022-11-25T19:25:29.549Z,53.72
2022-11-25T19:28:00.452Z,52.20
2022-11-25T19:30:32.842Z,53.15
2022-11-25T19:33:02.014Z,52.13
2022-11-25T19:35:41.216Z,53.60
2022-11-25T19:38:17.996Z,52.42
2022-11-25T19:40:45.177Z,53.28
2022-11-25T19:43:12.903Z,60.67
2022-11-25T19:45:40.681Z,58.95
2022-11-25T19:48:13.012Z,65.80
2022-11-25T19:51:13.968Z,73.90
2022-11-25T19:53:45.208Z,76.57
2022-11-25T19:56:19.869Z,71.22
2022-11-25T19:58:59.131Z,61.17
2022-11-25T20:01:36.315Z,57.45
2022-11-25T20:04:06.158Z,57.05
2022-11-25T20:06:34.336Z,56.67
2022-11-25T20:09:08.164Z,56.67
2022-11-25T20:11:38.104Z,57.92
2022-11-25T20:14:08.911Z,56.20
2022-11-25T20:16:42.091Z,60.13
2022-11-25T20:19:16.596Z,54.67
2022-11-25T20:21:44.792Z,55.65
2022-11-25T20:24:15.757Z,62.17
2022-11-25T20:26:48.479Z,62.90
2022-11-25T20:29:18.794Z,61.28
2022-11-25T20:31:46.635Z,64.07
2022-11-25T20:34:14.098Z,66.00
2022-11-25T20:36:42.841Z,62.05
2022-11-25T20:39:16.779Z,62.47
2022-11-25T20:41:46.832Z,57.30
2022-11-25T20:44:16.300Z,63.20
2022-11-25T20:46:48.345Z,60.10
2022-11-25T20:49:31.451Z,54.35
2022-11-25T20:52:03.342Z,55.65
2022-11-25T20:54:40.764Z,59.90
2022-11-25T20:57:12.012Z,59.63
2022-11-25T20:59:45.503Z,59.03
2022-11-25T21:02:16.074Z,56.78
2022-11-25T21:04:45.569Z,62.55
2022-11-25T21:07:22.786Z,80.93
2022-11-25T21:09:54.085Z,93.22
2022-11-25T21:12:26.017Z,85.88
2022-11-25T21:14:55.638Z,80.75
2022-11-25T21:17:29.488Z,81.00
2022-11-25T21:20:00.736Z,79.68
2022-11-25T21:22:28.161Z,76.18
2022-11-25T21:24:55.214Z,75.82
2022-11-25T21:27:22.469Z,77.80
2022-11-25T21:29:49.666Z,74.45
2022-11-25T21:32:22.252Z,72.90
2022-11-25T21:34:50.403Z,71.72
2022-11-25T21:37:20.361Z,73.22
2022-11-25T21:39:47.588Z,77.70
2022-11-25T21:42:20.038Z,76.85
2022-11-25T21:44:48.168Z,76.60
2022-11-25T21:47:20.267Z,73.80
2022-11-25T21:49:47.516Z,77.05
2022-11-25T21:52:15.085Z,76.57
2022-11-25T21:54:42.551Z,77.53
2022-11-25T21:57:15.435Z,84.38
2022-11-25T21:59:43.152Z,82.95
2022-11-25T22:02:18.867Z,82.25
2022-11-25T22:04:46.401Z,87.05
2022-11-25T22:07:13.637Z,82.22
2022-11-25T22:09:41.226Z,83.55
2022-11-25T22:12:26.409Z,77.18
2022-11-25T22:14:55.923Z,81.03
2022-11-25T22:17:23.507Z,79.35
2022-11-25T22:19:50.742Z,82.35
2022-11-25T22:22:18.232Z,79.60
2022-11-25T22:24:46.030Z,79.53
2022-11-25T22:27:24.689Z,83.35
2022-11-25T22:29:52.496Z,79.50
2022-11-25T22:32:19.461Z,79.78
2022-11-25T22:34:46.571Z,80.35
2022-11-25T22:37:22.023Z,79.13
2022-11-25T22:39:49.298Z,77.70
2022-11-25T22:42:28.912Z,77.78
2022-11-25T22:44:56.833Z,79.25
2022-11-25T22:47:45.555Z,76.00
2022-11-25T22:50:27.600Z,74.72
2022-11-25T22:55:27.365Z,76.72
2022-11-25T22:57:56.190Z,78.38
2022-11-25T23:00:26.731Z,79.45
2022-11-25T23:02:56.557Z,80.97
2022-11-25T23:05:33.406Z,79.05
2022-11-25T23:08:25.051Z,78.03
2022-11-25T23:10:53.071Z,83.85
2022-11-25T23:13:20.689Z,87.13
2022-11-25T23:16:01.420Z,84.43
2022-11-25T23:18:38.746Z,83.43
2022-11-25T23:21:06.970Z,74.53
2022-11-25T23:23:34.240Z,82.57
2022-11-25T23:26:01.286Z,78.55
2022-11-25T23:28:28.450Z,84.05
2022-11-25T23:30:57.366Z,76.82
2022-11-25T23:33:27.280Z,82.18
2022-11-25T23:35:54.566Z,83.68
2022-11-25T23:38:23.212Z,82.45
2022-11-25T23:40:50.322Z,81.40
2022-11-25T23:43:17.813Z,81.57
2022-11-25T23:45:48.745Z,82.70
2022-11-25T23:48:16.077Z,73.90
2022-11-25T23:50:43.201Z,80.00
2022-11-25T23:53:17.942Z,81.47
2022-11-25T23:55:44.996Z,80.20
2022-11-25T23:58:16.143Z,81.93
